createdAt,value
2018-08-31T00:02:06.347Z,100251.05
2018-08-31T00:04:32.299Z,100247.59
2018-08-31T00:06:58.272Z,100243.81
2018-08-31T00:09:24.231Z,100242.52
2018-08-31T00:11:50.194Z,100243.86
2018-08-31T00:14:16.144Z,100241.11
2018-08-31T00:16:42.091Z,100241.30
2018-08-31T00:19:08.027Z,100241.70
2018-08-31T00:21:33.995Z,100237.46
2018-08-31T00:23:59.953Z,100239.51
2018-08-31T00:26:25.925Z,100239.40
2018-08-31T00:28:51.880Z,100243.16
2018-08-31T00:31:17.940Z,100244.22
2018-08-31T00:33:43.876Z,100246.02
2018-08-31T00:36:09.815Z,100243.39
2018-08-31T00:38:35.759Z,100238.11
2018-08-31T00:41:01.724Z,100239.89
2018-08-31T00:43:27.684Z,100238.77
2018-08-31T00:45:53.632Z,100237.06
2018-08-31T00:48:19.607Z,100244.97
2018-08-31T00:50:45.561Z,100240.19
2018-08-31T00:53:11.512Z,100243.87
2018-08-31T00:55:37.479Z,100248.63
2018-08-31T00:58:03.444Z,100242.47
2018-08-31T01:00:29.417Z,100241.61
2018-08-31T01:02:55.410Z,100247.92
2018-08-31T01:05:21.392Z,100244.55
2018-08-31T01:07:47.341Z,100241.52
2018-08-31T01:10:13.304Z,100247.11
2018-08-31T01:12:39.470Z,100241.61
2018-08-31T01:15:05.412Z,100238.34
2018-08-31T01:17:31.365Z,100242.95
2018-08-31T01:19:57.317Z,100249.33
2018-08-31T01:22:23.286Z,100252.57
2018-08-31T01:24:49.243Z,100250.55
2018-08-31T01:27:15.207Z,100254.36
2018-08-31T01:29:41.145Z,100251.17
2018-08-31T01:32:07.204Z,100245.47
2018-08-31T01:34:33.162Z,100248.47
2018-08-31T01:36:59.123Z,100249.95
2018-08-31T01:39:25.104Z,100252.09
2018-08-31T01:41:51.059Z,100252.22
2018-08-31T01:44:16.984Z,100251.27
2018-08-31T01:46:42.933Z,100254.46
2018-08-31T01:49:08.887Z,100247.88
2018-08-31T01:51:34.829Z,100251.75
2018-08-31T01:54:00.766Z,100252.36
2018-08-31T01:56:26.727Z,100256.02
2018-08-31T01:58:52.668Z,100259.62
2018-08-31T02:01:18.630Z,100258.48
2018-08-31T02:03:44.561Z,100254.31
2018-08-31T02:06:10.512Z,100253.64
2018-08-31T02:08:36.543Z,100249.48
2018-08-31T02:11:02.494Z,100253.47
2018-08-31T02:13:28.455Z,100247.64
2018-08-31T02:15:54.382Z,100253.20
2018-08-31T02:18:20.428Z,100253.69
2018-08-31T02:20:46.371Z,100257.43
2018-08-31T02:23:12.327Z,100254.06
2018-08-31T02:25:38.287Z,100261.95
2018-08-31T02:28:04.253Z,100266.42
2018-08-31T02:30:30.205Z,100258.92
2018-08-31T02:32:56.160Z,100263.75
2018-08-31T02:35:22.090Z,100263.85
2018-08-31T02:37:48.034Z,100261.67
2018-08-31T02:40:13.960Z,100260.62
2018-08-31T02:42:39.917Z,100255.46
2018-08-31T02:45:05.867Z,100256.56
2018-08-31T02:47:31.818Z,100260.22
2018-08-31T02:49:57.776Z,100257.64
2018-08-31T02:52:23.734Z,100263.11
2018-08-31T02:54:49.672Z,100273.05
2018-08-31T02:57:15.605Z,100267.87
2018-08-31T02:59:41.529Z,100266.83
2018-08-31T03:02:07.487Z,100269.15
2018-08-31T03:04:33.438Z,100266.15
2018-08-31T03:06:59.366Z,100260.59
2018-08-31T03:09:25.450Z,100256.38
2018-08-31T03:11:51.449Z,100257.23
2018-08-31T03:14:17.449Z,100252.56
2018-08-31T03:16:43.397Z,100252.12
2018-08-31T03:19:09.340Z,100246.31
2018-08-31T03:21:35.302Z,100252.05
2018-08-31T03:24:01.314Z,100248.64
2018-08-31T03:26:27.283Z,100251.64
2018-08-31T03:28:53.216Z,100247.53
2018-08-31T03:31:19.208Z,100249.95
2018-08-31T03:33:45.235Z,100248.69
2018-08-31T03:36:11.233Z,100246.98
2018-08-31T03:38:37.222Z,100249.77
2018-08-31T03:41:03.206Z,100254.67
2018-08-31T03:43:29.161Z,100259.38
2018-08-31T03:45:55.159Z,100259.95
2018-08-31T03:48:21.135Z,100257.59
2018-08-31T03:50:47.109Z,100259.03
2018-08-31T03:53:13.063Z,100258.41
2018-08-31T03:55:39.025Z,100265.84
2018-08-31T03:58:04.944Z,100264.14
2018-08-31T04:00:30.951Z,100271.84
2018-08-31T04:02:56.864Z,100271.37
2018-08-31T04:05:22.879Z,100270.77
2018-08-31T04:07:48.843Z,100266.16
2018-08-31T04:10:14.800Z,100264.88
2018-08-31T04:12:40.745Z,100266.33
2018-08-31T04:15:06.798Z,100273.86
2018-08-31T04:17:32.712Z,100274.82
2018-08-31T04:19:58.771Z,100284.74
2018-08-31T04:22:24.705Z,100287.84
2018-08-31T04:24:50.659Z,100286.17
2018-08-31T04:27:16.611Z,100286.17
2018-08-31T04:29:42.589Z,100290.07
2018-08-31T04:32:08.536Z,100290.69
2018-08-31T04:34:34.468Z,100291.52
2018-08-31T04:37:00.427Z,100289.36
2018-08-31T04:39:26.386Z,100287.11
2018-08-31T04:41:52.330Z,100284.71
2018-08-31T04:44:18.291Z,100279.67
2018-08-31T04:46:44.263Z,100285.45
2018-08-31T04:49:10.214Z,100291.53
2018-08-31T04:51:36.180Z,100290.14
2018-08-31T04:54:02.149Z,100291.05
2018-08-31T04:56:28.123Z,100290.31
2018-08-31T04:58:54.108Z,100295.28
2018-08-31T05:01:20.047Z,100286.62
2018-08-31T05:03:45.982Z,100288.39
2018-08-31T05:06:11.931Z,100290.45
2018-08-31T05:08:37.907Z,100291.03
2018-08-31T05:11:03.964Z,100288.98
2018-08-31T05:13:29.904Z,100283.27
2018-08-31T05:15:55.895Z,100283.71
2018-08-31T05:18:21.844Z,100291.89
2018-08-31T05:20:47.805Z,100286.97
2018-08-31T05:23:13.736Z,100290.83
2018-08-31T05:25:39.679Z,100292.52
2018-08-31T05:28:05.685Z,100298.63
2018-08-31T05:30:31.655Z,100295.27
2018-08-31T05:32:57.594Z,100299.50
2018-08-31T05:35:23.542Z,100309.70
2018-08-31T05:37:49.528Z,100305.41
2018-08-31T05:40:15.515Z,100302.69
2018-08-31T05:42:41.473Z,100305.44
2018-08-31T05:45:07.425Z,100305.38
2018-08-31T05:47:33.414Z,100310.77
2018-08-31T05:49:59.376Z,100310.41
2018-08-31T05:52:25.432Z,100311.33
2018-08-31T05:54:51.379Z,100316.55
2018-08-31T05:57:17.317Z,100314.09
2018-08-31T05:59:43.273Z,100317.95
2018-08-31T06:02:09.285Z,100316.78
2018-08-31T06:04:35.254Z,100320.02
2018-08-31T06:07:01.236Z,100317.73
2018-08-31T06:09:27.200Z,100316.86
2018-08-31T06:11:53.262Z,100314.77
2018-08-31T06:14:19.169Z,100319.91
2018-08-31T06:16:45.124Z,100326.75
2018-08-31T06:19:11.088Z,100319.81
2018-08-31T06:21:37.040Z,100322.52
2018-08-31T06:24:02.996Z,100323.06
2018-08-31T06:26:28.932Z,100330.95
2018-08-31T06:28:54.923Z,100326.56
2018-08-31T06:31:20.868Z,100328.34
2018-08-31T06:33:46.895Z,100327.88
2018-08-31T06:36:12.845Z,100329.01
2018-08-31T06:38:38.845Z,100288.93
2018-08-31T06:41:04.797Z,100329.52
2018-08-31T06:43:30.741Z,100324.30
2018-08-31T06:45:56.696Z,100326.94
2018-08-31T06:48:22.640Z,100316.11
2018-08-31T06:50:48.600Z,100322.44
2018-08-31T06:53:14.572Z,100320.66
2018-08-31T06:55:40.538Z,100329.25
2018-08-31T06:58:06.520Z,100330.93
2018-08-31T07:00:32.489Z,100336.60
2018-08-31T07:02:58.516Z,100343.84
2018-08-31T07:05:24.453Z,100346.80
2018-08-31T07:07:50.566Z,100344.35
2018-08-31T07:10:16.527Z,100347.45
2018-08-31T07:12:42.483Z,100344.89
2018-08-31T07:15:08.473Z,100350.78
2018-08-31T07:17:34.430Z,100346.02
2018-08-31T07:20:00.388Z,100357.69
2018-08-31T07:22:26.376Z,100355.58
2018-08-31T07:24:52.333Z,100355.39
2018-08-31T07:27:18.282Z,100357.11
2018-08-31T07:29:44.277Z,100357.38
2018-08-31T07:32:10.327Z,100358.54
2018-08-31T07:34:36.281Z,100360.47
2018-08-31T07:37:02.238Z,100363.56
2018-08-31T07:39:28.210Z,100366.15
2018-08-31T07:41:54.168Z,100369.64
2018-08-31T07:44:20.132Z,100361.48
2018-08-31T07:46:46.099Z,100363.32
2018-08-31T07:49:12.073Z,100363.70
2018-08-31T07:51:38.013Z,100366.02
2018-08-31T07:54:04.057Z,100370.35
2018-08-31T07:56:30.026Z,100366.83
2018-08-31T07:58:55.984Z,100363.44
2018-08-31T08:01:21.971Z,100359.13
2018-08-31T08:03:47.973Z,100355.69
2018-08-31T08:06:13.918Z,100359.47
2018-08-31T08:08:39.868Z,100355.07
2018-08-31T08:11:05.828Z,100352.98
2018-08-31T08:13:31.784Z,100353.24
2018-08-31T08:15:57.720Z,100362.81
2018-08-31T08:18:23.685Z,100363.80
2018-08-31T08:20:49.656Z,100366.33
2018-08-31T08:23:15.588Z,100359.69
2018-08-31T08:25:41.540Z,100351.23
2018-08-31T08:28:07.582Z,100350.62
2018-08-31T08:30:33.539Z,100357.95
2018-08-31T08:32:59.519Z,100364.68
2018-08-31T08:35:25.483Z,100358.03
2018-08-31T08:37:51.467Z,100357.66
2018-08-31T08:40:17.448Z,100353.20
2018-08-31T08:42:43.385Z,100358.61
2018-08-31T08:45:09.358Z,100361.65
2018-08-31T08:47:35.312Z,100371.00
2018-08-31T08:50:01.298Z,100372.27
2018-08-31T08:52:27.247Z,100372.06
2018-08-31T08:54:53.227Z,100371.09
2018-08-31T08:57:19.198Z,100373.30
2018-08-31T08:59:45.144Z,100370.69
2018-08-31T09:02:11.080Z,100376.64
2018-08-31T09:04:37.046Z,100383.98
2018-08-31T09:07:03.003Z,100379.70
2018-08-31T09:09:28.990Z,100388.35
2018-08-31T09:11:54.980Z,100383.56
2018-08-31T09:14:20.930Z,100382.44
2018-08-31T09:16:46.985Z,100379.23
2018-08-31T09:19:12.979Z,100386.70
2018-08-31T09:21:38.966Z,100385.14
2018-08-31T09:24:04.914Z,100388.24
2018-08-31T09:26:30.886Z,100398.28
2018-08-31T09:28:56.866Z,100390.42
2018-08-31T09:31:22.864Z,100400.64
2018-08-31T09:33:48.830Z,100400.95
2018-08-31T09:36:14.778Z,100405.41
2018-08-31T09:38:40.734Z,100410.23
2018-08-31T09:41:06.684Z,100405.09
2018-08-31T09:43:32.622Z,100407.33
2018-08-31T09:45:58.563Z,100403.09
2018-08-31T09:48:24.528Z,100400.13
2018-08-31T09:50:50.474Z,100395.63
2018-08-31T09:53:16.420Z,100402.02
2018-08-31T09:55:42.379Z,100386.39
2018-08-31T09:58:08.343Z,100369.65
2018-08-31T10:00:34.293Z,100361.96
2018-08-31T10:03:00.233Z,100363.37
2018-08-31T10:05:26.205Z,100358.36
2018-08-31T10:07:52.139Z,100353.25
2018-08-31T10:10:18.080Z,100360.75
2018-08-31T10:12:44.037Z,100351.66
2018-08-31T10:15:09.973Z,100352.16
2018-08-31T10:17:35.916Z,100355.19
2018-08-31T10:20:01.878Z,100354.67
2018-08-31T10:22:27.860Z,100358.23
2018-08-31T10:24:53.808Z,100355.91
2018-08-31T10:27:19.804Z,100354.03
2018-08-31T10:29:45.752Z,100357.32
2018-08-31T10:32:11.723Z,100356.56
2018-08-31T10:34:37.664Z,100345.53
2018-08-31T10:37:03.650Z,100343.98
2018-08-31T10:39:29.623Z,100340.52
2018-08-31T10:41:55.584Z,100346.56
2018-08-31T10:44:21.599Z,100345.52
2018-08-31T10:46:47.586Z,100347.26
2018-08-31T10:49:13.557Z,100341.02
2018-08-31T10:51:39.526Z,100338.05
2018-08-31T10:54:05.516Z,100328.50
2018-08-31T10:56:31.567Z,100326.57
2018-08-31T10:58:57.523Z,100338.41
2018-08-31T11:01:23.477Z,100331.66
2018-08-31T11:03:49.449Z,100326.31
2018-08-31T11:06:15.411Z,100330.68
2018-08-31T11:08:41.345Z,100330.91
2018-08-31T11:11:07.286Z,100338.17
2018-08-31T11:13:33.237Z,100333.62
2018-08-31T11:15:59.195Z,100328.70
2018-08-31T11:18:25.171Z,100332.10
2018-08-31T11:20:51.209Z,100336.09
2018-08-31T11:23:17.144Z,100330.48
2018-08-31T11:25:43.096Z,100338.23
2018-08-31T11:28:09.033Z,100327.34
2018-08-31T11:30:35.011Z,100337.91
2018-08-31T11:33:01.001Z,100335.56
2018-08-31T11:35:26.937Z,100335.39
2018-08-31T11:37:52.873Z,100336.61
2018-08-31T11:40:18.847Z,100334.75
2018-08-31T11:42:44.812Z,100334.03
2018-08-31T11:45:10.766Z,100336.23
2018-08-31T11:47:36.729Z,100327.59
2018-08-31T11:50:02.683Z,100327.08
2018-08-31T11:52:28.629Z,100330.61
2018-08-31T11:54:54.618Z,100341.87
2018-08-31T11:57:20.611Z,100336.47
2018-08-31T11:59:46.559Z,100331.52
2018-08-31T12:02:12.548Z,100336.72
2018-08-31T12:04:38.515Z,100330.54
2018-08-31T12:07:04.517Z,100325.59
2018-08-31T12:09:30.476Z,100324.71
2018-08-31T12:11:56.468Z,100330.77
2018-08-31T12:14:22.456Z,100325.09
2018-08-31T12:16:48.436Z,100324.71
2018-08-31T12:19:14.395Z,100327.79
2018-08-31T12:21:40.325Z,100336.75
2018-08-31T12:24:06.261Z,100331.20
2018-08-31T12:26:32.210Z,100331.08
2018-08-31T12:28:58.169Z,100326.32
2018-08-31T12:31:24.160Z,100325.84
2018-08-31T12:33:50.147Z,100323.69
2018-08-31T12:36:16.114Z,100320.78
2018-08-31T12:38:42.065Z,100325.33
2018-08-31T12:41:08.034Z,100325.77
2018-08-31T12:43:33.998Z,100320.19
2018-08-31T12:45:59.967Z,100319.58
2018-08-31T12:48:26.014Z,100309.00
2018-08-31T12:50:52.045Z,100321.23
2018-08-31T12:53:18.019Z,100313.86
2018-08-31T12:55:43.992Z,100311.65
2018-08-31T12:58:09.936Z,100307.70
2018-08-31T13:00:35.949Z,100318.80
2018-08-31T13:03:01.923Z,100307.14
2018-08-31T13:05:27.879Z,100303.44
2018-08-31T13:07:53.819Z,100300.24
2018-08-31T13:10:19.793Z,100304.41
2018-08-31T13:12:45.744Z,100305.54
2018-08-31T13:15:11.715Z,100299.25
2018-08-31T13:17:37.658Z,100292.86
2018-08-31T13:20:03.743Z,100303.04
2018-08-31T13:22:29.637Z,100304.09
2018-08-31T13:24:55.589Z,100304.91
2018-08-31T13:27:21.554Z,100307.49
2018-08-31T13:29:47.517Z,100313.25
2018-08-31T13:32:13.460Z,100315.52
2018-08-31T13:34:39.424Z,100313.01
2018-08-31T13:37:05.376Z,100310.80
2018-08-31T13:39:31.349Z,100308.69
2018-08-31T13:41:57.325Z,100302.09
2018-08-31T13:44:23.350Z,100307.12
2018-08-31T13:46:49.308Z,100302.07
2018-08-31T13:49:15.397Z,100299.54
2018-08-31T13:51:41.365Z,100298.42
2018-08-31T13:54:07.341Z,100301.89
2018-08-31T13:56:33.345Z,100309.55
2018-08-31T13:58:59.311Z,100308.52
2018-08-31T14:01:25.242Z,100305.14
2018-08-31T14:03:51.217Z,100311.27
2018-08-31T14:06:17.218Z,100310.30
2018-08-31T14:08:43.237Z,100312.86
2018-08-31T14:11:09.235Z,100314.59
2018-08-31T14:13:35.205Z,100314.59
2018-08-31T14:16:01.138Z,100316.03
2018-08-31T14:18:27.110Z,100320.27
2018-08-31T14:20:53.085Z,100315.10
2018-08-31T14:23:19.053Z,100316.62
2018-08-31T14:25:45.013Z,100308.28
2018-08-31T14:28:11.010Z,100312.93
2018-08-31T14:30:37.001Z,100312.45
2018-08-31T14:33:02.974Z,100304.89
2018-08-31T14:35:28.947Z,100311.23
2018-08-31T14:37:54.953Z,100297.66
2018-08-31T14:40:20.927Z,100300.83
2018-08-31T14:42:46.873Z,100310.09
2018-08-31T14:45:12.845Z,100303.63
2018-08-31T14:47:38.897Z,100303.48
2018-08-31T14:50:04.890Z,100304.04
2018-08-31T14:52:30.877Z,100304.33
2018-08-31T14:54:56.879Z,100301.30
2018-08-31T14:57:22.877Z,100301.75
2018-08-31T14:59:48.849Z,100302.44
2018-08-31T15:02:14.872Z,100303.70
2018-08-31T15:04:40.818Z,100301.67
2018-08-31T15:07:06.760Z,100305.22
2018-08-31T15:09:32.709Z,100301.12
2018-08-31T15:11:58.644Z,100294.70
2018-08-31T15:14:24.620Z,100295.62
2018-08-31T15:16:50.574Z,100294.09
2018-08-31T15:19:16.540Z,100294.92
2018-08-31T15:21:42.548Z,100296.87
2018-08-31T15:24:08.504Z,100298.00
2018-08-31T15:26:34.465Z,100300.97
2018-08-31T15:29:00.472Z,100300.02
2018-08-31T15:31:26.499Z,100296.71
2018-08-31T15:33:52.404Z,100295.63
2018-08-31T15:36:18.410Z,100291.87
2018-08-31T15:38:44.437Z,100293.38
2018-08-31T15:41:10.475Z,100290.03
2018-08-31T15:43:36.445Z,100286.39
2018-08-31T15:46:02.417Z,100285.47
2018-08-31T15:48:28.503Z,100282.92
2018-08-31T15:50:54.474Z,100281.65
2018-08-31T15:53:20.475Z,100281.61
2018-08-31T15:55:46.475Z,100280.23
2018-08-31T15:58:12.424Z,100282.02
2018-08-31T16:00:38.493Z,100283.19
2018-08-31T16:03:04.454Z,100281.55
2018-08-31T16:05:30.592Z,100283.56
2018-08-31T16:07:56.591Z,100280.34
2018-08-31T16:10:22.536Z,100280.81
2018-08-31T16:12:48.496Z,100271.83
2018-08-31T16:15:14.447Z,100276.06
2018-08-31T16:17:40.385Z,100278.79
2018-08-31T16:20:06.320Z,100276.62
2018-08-31T16:22:32.254Z,100284.21
2018-08-31T16:24:58.235Z,100275.71
2018-08-31T16:27:24.186Z,100278.16
2018-08-31T16:29:50.153Z,100279.84
2018-08-31T16:32:16.104Z,100274.42
2018-08-31T16:34:42.138Z,100283.59
2018-08-31T16:37:08.122Z,100284.09
2018-08-31T16:39:34.077Z,100285.19
2018-08-31T16:42:00.053Z,100288.52
2018-08-31T16:44:26.035Z,100286.41
2018-08-31T16:46:52.149Z,100293.03
2018-08-31T16:49:18.120Z,100289.40
2018-08-31T16:51:44.103Z,100292.66
2018-08-31T16:54:10.132Z,100297.14
2018-08-31T16:56:36.113Z,100300.36
2018-08-31T16:59:02.076Z,100294.70
2018-08-31T17:01:28.063Z,100306.23
2018-08-31T17:03:54.051Z,100302.54
2018-08-31T17:06:20.034Z,100304.64
2018-08-31T17:08:46.022Z,100306.67
2018-08-31T17:11:12.010Z,100304.64
2018-08-31T17:13:37.988Z,100308.92
2018-08-31T17:16:03.981Z,100311.70
2018-08-31T17:18:29.959Z,100308.64
2018-08-31T17:20:55.923Z,100309.16
2018-08-31T17:23:21.890Z,100313.20
2018-08-31T17:25:47.857Z,100311.56
2018-08-31T17:28:13.824Z,100315.74
2018-08-31T17:30:39.777Z,100320.64
2018-08-31T17:33:05.793Z,100315.21
2018-08-31T17:35:31.760Z,100323.66
2018-08-31T17:37:57.729Z,100322.45
2018-08-31T17:40:23.775Z,100321.74
2018-08-31T17:42:49.774Z,100322.77
2018-08-31T17:45:15.753Z,100319.98
2018-08-31T17:47:41.707Z,100322.56
2018-08-31T17:50:07.678Z,100318.66
2018-08-31T17:52:33.654Z,100315.94
2018-08-31T17:54:59.610Z,100316.45
2018-08-31T17:57:25.563Z,100323.88
2018-08-31T17:59:51.541Z,100323.08
2018-08-31T18:02:17.517Z,100327.34
2018-08-31T18:04:43.475Z,100330.69
2018-08-31T18:07:09.478Z,100336.30
2018-08-31T18:09:35.575Z,100333.79
2018-08-31T18:12:01.527Z,100339.34
2018-08-31T18:14:27.503Z,100340.12
2018-08-31T18:16:53.473Z,100344.38
2018-08-31T18:19:19.925Z,100344.22
2018-08-31T18:21:45.914Z,100350.31
2018-08-31T18:24:11.883Z,100345.77
2018-08-31T18:26:38.000Z,100353.27
2018-08-31T18:29:03.977Z,100350.88
2018-08-31T18:31:29.957Z,100347.29
2018-08-31T18:33:55.949Z,100354.05
2018-08-31T18:36:21.890Z,100356.16
2018-08-31T18:38:47.854Z,100357.02
2018-08-31T18:41:13.826Z,100363.56
2018-08-31T18:43:39.799Z,100364.18
2018-08-31T18:46:05.785Z,100365.84
2018-08-31T18:48:31.789Z,100357.88
2018-08-31T18:50:57.743Z,100364.99
2018-08-31T18:53:23.744Z,100374.67
2018-08-31T18:55:49.731Z,100376.34
2018-08-31T18:58:15.696Z,100371.75
2018-08-31T19:00:41.657Z,100378.33
2018-08-31T19:03:07.643Z,100374.33
2018-08-31T19:05:33.616Z,100373.92
2018-08-31T19:07:59.597Z,100374.67
2018-08-31T19:10:25.558Z,100377.78
2018-08-31T19:12:51.607Z,100390.08
2018-08-31T19:15:17.582Z,100393.16
2018-08-31T19:17:43.544Z,100390.45
2018-08-31T19:20:09.569Z,100389.66
2018-08-31T19:22:35.535Z,100382.41
2018-08-31T19:25:01.575Z,100393.49
2018-08-31T19:27:27.524Z,100387.50
2018-08-31T19:29:53.614Z,100388.88
2018-08-31T19:32:19.585Z,100388.17
2018-08-31T19:34:45.647Z,100387.26
2018-08-31T19:37:11.621Z,100392.46
2018-08-31T19:39:37.580Z,100392.35
2018-08-31T19:42:03.560Z,100399.34
2018-08-31T19:44:29.582Z,100394.62
2018-08-31T19:46:55.590Z,100396.66
2018-08-31T19:49:21.598Z,100390.30
2018-08-31T19:51:47.611Z,100391.44
2018-08-31T19:54:13.666Z,100388.24
2018-08-31T19:56:39.638Z,100392.75
2018-08-31T19:59:05.604Z,100397.69
2018-08-31T20:01:31.588Z,100404.31
2018-08-31T20:03:57.616Z,100405.42
2018-08-31T20:06:23.598Z,100407.33
2018-08-31T20:08:49.579Z,100409.16
2018-08-31T20:11:15.553Z,100408.81
2018-08-31T20:13:41.566Z,100409.44
2018-08-31T20:16:07.585Z,100413.58
2018-08-31T20:18:33.631Z,100418.55
2018-08-31T20:20:59.633Z,100412.64
2018-08-31T20:23:25.643Z,100416.17
2018-08-31T20:25:51.608Z,100418.41
2018-08-31T20:28:17.565Z,100414.16
2018-08-31T20:30:43.522Z,100422.25
2018-08-31T20:33:09.579Z,100431.44
2018-08-31T20:35:35.533Z,100426.97
2018-08-31T20:38:01.543Z,100430.14
2018-08-31T20:40:27.528Z,100430.70
2018-08-31T20:42:53.512Z,100434.61
2018-08-31T20:45:19.488Z,100432.12
2018-08-31T20:54:31.353Z,100440.71
2018-08-31T20:56:57.401Z,100432.48
2018-08-31T20:59:23.348Z,100437.52
2018-08-31T21:01:49.429Z,100438.33
2018-08-31T21:04:15.437Z,100444.83
2018-08-31T21:06:41.406Z,100450.38
2018-08-31T21:09:07.364Z,100453.11
2018-08-31T21:11:33.346Z,100449.12
2018-08-31T21:13:59.295Z,100445.64
2018-08-31T21:16:25.259Z,100444.20
2018-08-31T21:18:51.219Z,100441.67
2018-08-31T21:21:17.210Z,100446.83
2018-08-31T21:23:43.264Z,100456.66
2018-08-31T21:26:09.292Z,100457.75
2018-08-31T21:28:35.284Z,100451.78
2018-08-31T21:31:01.264Z,100451.67
2018-08-31T21:33:27.305Z,100456.98
2018-08-31T21:35:53.266Z,100451.52
2018-08-31T21:38:19.238Z,100449.09
2018-08-31T21:40:45.219Z,100446.14
2018-08-31T21:43:11.195Z,100454.81
2018-08-31T21:45:37.203Z,100453.38
2018-08-31T21:48:03.223Z,100450.25
2018-08-31T21:50:29.193Z,100461.00
2018-08-31T21:52:55.168Z,100458.02
2018-08-31T21:55:21.123Z,100456.55
2018-08-31T21:57:47.096Z,100464.16
2018-08-31T22:00:13.087Z,100464.48
2018-08-31T22:02:39.137Z,100473.19
2018-08-31T22:05:05.130Z,100467.96
2018-08-31T22:07:31.088Z,100473.45
2018-08-31T22:09:57.040Z,100477.24
2018-08-31T22:12:22.989Z,100481.27
2018-08-31T22:14:48.949Z,100479.38
2018-08-31T22:17:14.884Z,100475.97
2018-08-31T22:19:40.824Z,100480.31
2018-08-31T22:22:06.853Z,100481.81
2018-08-31T22:24:32.812Z,100475.22
2018-08-31T22:26:58.754Z,100478.91
2018-08-31T22:29:24.729Z,100473.51
2018-08-31T22:31:50.693Z,100469.30
2018-08-31T22:34:16.711Z,100465.55
2018-08-31T22:36:42.641Z,100462.98
2018-08-31T22:39:08.611Z,100458.41
2018-08-31T22:41:34.573Z,100454.80
2018-08-31T22:44:00.648Z,100453.13
2018-08-31T22:46:26.626Z,100453.89
2018-08-31T22:48:52.588Z,100454.72
2018-08-31T22:51:18.567Z,100450.56
2018-08-31T22:53:44.529Z,100453.94
2018-08-31T22:56:10.461Z,100451.13
2018-08-31T22:58:36.425Z,100445.98
2018-08-31T23:01:02.375Z,100446.82
2018-08-31T23:03:28.350Z,100452.58
2018-08-31T23:05:54.299Z,100448.74
2018-08-31T23:08:20.261Z,100448.11
2018-08-31T23:10:46.211Z,100446.59
2018-08-31T23:13:12.189Z,100449.27
2018-08-31T23:15:38.155Z,100449.06
2018-08-31T23:18:04.094Z,100451.31
2018-08-31T23:20:30.035Z,100457.06
2018-08-31T23:22:55.975Z,100451.39
2018-08-31T23:25:21.921Z,100442.45
2018-08-31T23:27:47.929Z,100442.23
2018-08-31T23:30:13.901Z,100446.64
2018-08-31T23:32:39.871Z,100446.64
2018-08-31T23:35:05.808Z,100454.62
2018-08-31T23:37:31.756Z,100444.64
2018-08-31T23:39:57.708Z,100447.65
2018-08-31T23:42:23.683Z,100449.04
2018-08-31T23:44:49.651Z,100457.67
2018-08-31T23:47:15.593Z,100450.45
2018-08-31T23:49:41.535Z,100446.80
2018-08-31T23:52:07.496Z,100445.82
2018-08-31T23:54:33.464Z,100445.38
2018-08-31T23:56:59.416Z,100440.50
2018-08-31T23:59:25.346Z,100446.13
